sensor_id;sensor_type;location;lat;lon;timestamp;pressure;altitude;pressure_sealevel;temperature;humidity
19761;BME280;10039;42.632;23.408;2022-10-16T00:01:59;95586.25;;;12.14;64.68
19761;BME280;10039;42.632;23.408;2022-10-16T00:04:25;95622.56;;;12.41;64.86
19761;BME280;10039;42.632;23.408;2022-10-16T00:06:51;95643.34;;;12.30;65.08
19761;BME280;10039;42.632;23.408;2022-10-16T00:09:16;95646.59;;;12.18;65.73
19761;BME280;10039;42.632;23.408;2022-10-16T00:11:42;95629.84;;;12.14;65.18
19761;BME280;10039;42.632;23.408;2022-10-16T00:14:14;95637.31;;;12.26;65.10
19761;BME280;10039;42.632;23.408;2022-10-16T00:16:40;95628.31;;;12.13;65.22
19761;BME280;10039;42.632;23.408;2022-10-16T00:19:06;95617.56;;;12.17;64.86
19761;BME280;10039;42.632;23.408;2022-10-16T00:21:33;95628.00;;;12.34;65.06
19761;BME280;10039;42.632;23.408;2022-10-16T00:24:04;95617.91;;;12.19;64.88
19761;BME280;10039;42.632;23.408;2022-10-16T00:26:32;95637.31;;;12.26;65.04
19761;BME280;10039;42.632;23.408;2022-10-16T00:28:58;95646.75;;;12.34;65.00
19761;BME280;10039;42.632;23.408;2022-10-16T00:31:23;95637.44;;;12.16;64.93
19761;BME280;10039;42.632;23.408;2022-10-16T00:33:50;95624.31;;;11.98;64.94
19761;BME280;10039;42.632;23.408;2022-10-16T00:36:18;95644.38;;;12.13;65.27
19761;BME280;10039;42.632;23.408;2022-10-16T00:38:44;95658.19;;;12.08;65.69
19761;BME280;10039;42.632;23.408;2022-10-16T00:41:16;95662.03;;;12.07;65.73
19761;BME280;10039;42.632;23.408;2022-10-16T00:43:56;95628.00;;;11.81;65.18
19761;BME280;10039;42.632;23.408;2022-10-16T00:46:26;95642.31;;;11.98;65.37
19761;BME280;10039;42.632;23.408;2022-10-16T00:49:08;95658.19;;;12.08;65.46
19761;BME280;10039;42.632;23.408;2022-10-16T00:51:37;95661.66;;;12.09;65.15
19761;BME280;10039;42.632;23.408;2022-10-16T00:54:08;95609.66;;;11.80;65.22
19761;BME280;10039;42.632;23.408;2022-10-16T00:56:34;95655.78;;;12.17;64.55
19761;BME280;10039;42.632;23.408;2022-10-16T00:59:03;95667.81;;;12.06;64.57
19761;BME280;10039;42.632;23.408;2022-10-16T01:01:32;95639.84;;;11.80;65.29
19761;BME280;10039;42.632;23.408;2022-10-16T01:03:57;95669.44;;;11.96;65.23
19761;BME280;10039;42.632;23.408;2022-10-16T01:09:17;95669.19;;;11.87;65.08
19761;BME280;10039;42.632;23.408;2022-10-16T01:11:57;95674.47;;;11.91;65.05
19761;BME280;10039;42.632;23.408;2022-10-16T01:14:37;95657.94;;;11.69;64.55
19761;BME280;10039;42.632;23.408;2022-10-16T01:22:08;95673.84;;;11.80;65.01
19761;BME280;10039;42.632;23.408;2022-10-16T01:24:44;95656.88;;;11.26;65.83
19761;BME280;10039;42.632;23.408;2022-10-16T01:35:21;95665.63;;;11.30;66.37
19761;BME280;10039;42.632;23.408;2022-10-16T01:40:24;95658.22;;;11.45;66.21
19761;BME280;10039;42.632;23.408;2022-10-16T01:43:04;95642.00;;;11.25;65.75
19761;BME280;10039;42.632;23.408;2022-10-16T01:45:31;95626.88;;;10.72;67.20
19761;BME280;10039;42.632;23.408;2022-10-16T01:48:00;95627.00;;;10.58;68.75
19761;BME280;10039;42.632;23.408;2022-10-16T01:50:29;95657.53;;;10.57;69.09
19761;BME280;10039;42.632;23.408;2022-10-16T01:52:57;95657.31;;;10.34;70.20
19761;BME280;10039;42.632;23.408;2022-10-16T01:55:28;95655.88;;;10.19;70.95
19761;BME280;10039;42.632;23.408;2022-10-16T01:57:57;95639.63;;;10.00;71.61
19761;BME280;10039;42.632;23.408;2022-10-16T02:00:27;95638.84;;;9.99;70.91
19761;BME280;10039;42.632;23.408;2022-10-16T02:02:55;95667.63;;;10.28;71.87
19761;BME280;10039;42.632;23.408;2022-10-16T02:05:37;95656.22;;;10.28;71.11
19761;BME280;10039;42.632;23.408;2022-10-16T02:08:04;95631.25;;;10.01;71.05
19761;BME280;10039;42.632;23.408;2022-10-16T02:10:30;95639.97;;;9.98;71.20
19761;BME280;10039;42.632;23.408;2022-10-16T02:13:13;95636.94;;;10.03;71.22
19761;BME280;10039;42.632;23.408;2022-10-16T02:15:41;95667.63;;;10.28;71.02
19761;BME280;10039;42.632;23.408;2022-10-16T02:18:07;95663.81;;;10.33;70.66
19761;BME280;10039;42.632;23.408;2022-10-16T02:20:55;95645.25;;;10.12;70.75
19761;BME280;10039;42.632;23.408;2022-10-16T02:23:42;95670.84;;;10.02;71.09
19761;BME280;10039;42.632;23.408;2022-10-16T02:26:14;95684.50;;;10.08;71.91
19761;BME280;10039;42.632;23.408;2022-10-16T02:28:51;95676.53;;;9.98;72.04
19761;BME280;10039;42.632;23.408;2022-10-16T02:31:26;95674.63;;;10.05;71.74
19761;BME280;10039;42.632;23.408;2022-10-16T02:33:55;95685.25;;;10.12;71.64
19761;BME280;10039;42.632;23.408;2022-10-16T02:36:23;95695.50;;;10.17;71.41
19761;BME280;10039;42.632;23.408;2022-10-16T02:38:50;95661.38;;;9.84;71.61
19761;BME280;10039;42.632;23.408;2022-10-16T02:41:16;95671.59;;;9.93;71.64
19761;BME280;10039;42.632;23.408;2022-10-16T02:43:42;95654.56;;;9.80;71.62
19761;BME280;10039;42.632;23.408;2022-10-16T02:46:07;95703.47;;;10.24;71.23
19761;BME280;10039;42.632;23.408;2022-10-16T02:48:33;95658.72;;;9.88;70.45
19761;BME280;10039;42.632;23.408;2022-10-16T02:51:00;95681.44;;;10.13;69.89
19761;BME280;10039;42.632;23.408;2022-10-16T02:53:26;95677.72;;;10.00;69.51
19761;BME280;10039;42.632;23.408;2022-10-16T02:55:51;95714.44;;;10.36;69.29
19761;BME280;10039;42.632;23.408;2022-10-16T02:58:17;95704.81;;;10.53;68.70
19761;BME280;10039;42.632;23.408;2022-10-16T03:00:42;95715.75;;;10.69;67.64
19761;BME280;10039;42.632;23.408;2022-10-16T03:03:08;95726.00;;;10.77;67.24
19761;BME280;10039;42.632;23.408;2022-10-16T03:05:34;95710.72;;;10.81;67.04
19761;BME280;10039;42.632;23.408;2022-10-16T03:07:59;95715.34;;;10.74;66.70
19761;BME280;10039;42.632;23.408;2022-10-16T03:10:26;95699.31;;;10.74;66.35
19761;BME280;10039;42.632;23.408;2022-10-16T03:12:52;95677.34;;;10.52;66.34
19761;BME280;10039;42.632;23.408;2022-10-16T03:15:18;95720.63;;;10.81;67.02
19761;BME280;10039;42.632;23.408;2022-10-16T03:17:44;95701.59;;;10.75;65.98
19761;BME280;10039;42.632;23.408;2022-10-16T03:20:10;95713.34;;;10.85;65.90
19761;BME280;10039;42.632;23.408;2022-10-16T03:22:35;95715.63;;;10.86;65.79
19761;BME280;10039;42.632;23.408;2022-10-16T03:25:01;95728.91;;;10.97;65.51
19761;BME280;10039;42.632;23.408;2022-10-16T03:27:27;95721.41;;;10.78;65.57
19761;BME280;10039;42.632;23.408;2022-10-16T03:29:52;95708.94;;;10.64;66.40
19761;BME280;10039;42.632;23.408;2022-10-16T03:32:18;95733.25;;;10.77;65.80
19761;BME280;10039;42.632;23.408;2022-10-16T03:34:45;95717.72;;;10.65;66.28
19761;BME280;10039;42.632;23.408;2022-10-16T03:37:10;95710.84;;;10.60;66.36
19761;BME280;10039;42.632;23.408;2022-10-16T03:39:36;95709.75;;;10.54;66.10
19761;BME280;10039;42.632;23.408;2022-10-16T03:42:02;95700.31;;;10.46;65.80
19761;BME280;10039;42.632;23.408;2022-10-16T03:44:28;95732.97;;;10.61;65.79
19761;BME280;10039;42.632;23.408;2022-10-16T03:46:53;95729.63;;;10.50;66.65
19761;BME280;10039;42.632;23.408;2022-10-16T03:49:19;95703.53;;;10.10;67.27
19761;BME280;10039;42.632;23.408;2022-10-16T03:51:45;95693.06;;;9.68;69.02
19761;BME280;10039;42.632;23.408;2022-10-16T03:54:11;95712.78;;;9.81;69.64
19761;BME280;10039;42.632;23.408;2022-10-16T03:56:37;95684.06;;;9.24;71.14
19761;BME280;10039;42.632;23.408;2022-10-16T03:59:03;95710.63;;;9.41;71.87
19761;BME280;10039;42.632;23.408;2022-10-16T04:01:29;95695.44;;;9.42;71.33
19761;BME280;10039;42.632;23.408;2022-10-16T04:03:55;95700.00;;;9.38;71.89
19761;BME280;10039;42.632;23.408;2022-10-16T04:06:20;95699.97;;;9.48;71.16
19761;BME280;10039;42.632;23.408;2022-10-16T04:08:46;95713.66;;;9.54;71.41
19761;BME280;10039;42.632;23.408;2022-10-16T04:11:12;95729.22;;;9.59;71.85
19761;BME280;10039;42.632;23.408;2022-10-16T04:13:38;95723.53;;;9.57;71.77
19761;BME280;10039;42.632;23.408;2022-10-16T04:16:03;95726.94;;;9.61;71.85
19761;BME280;10039;42.632;23.408;2022-10-16T04:18:29;95702.28;;;9.36;71.73
19761;BME280;10039;42.632;23.408;2022-10-16T04:20:55;95712.50;;;9.58;71.23
19761;BME280;10039;42.632;23.408;2022-10-16T04:23:21;95725.03;;;9.65;71.28
19761;BME280;10039;42.632;23.408;2022-10-16T04:25:48;95723.16;;;9.58;72.02
19761;BME280;10039;42.632;23.408;2022-10-16T04:28:14;95706.06;;;9.45;71.53
19761;BME280;10039;42.632;23.408;2022-10-16T04:30:40;95709.88;;;9.55;71.10
19761;BME280;10039;42.632;23.408;2022-10-16T04:33:05;95725.81;;;9.65;70.90
19761;BME280;10039;42.632;23.408;2022-10-16T04:35:31;95693.88;;;9.44;70.93
19761;BME280;10039;42.632;23.408;2022-10-16T04:37:58;95711.78;;;9.44;71.25
19761;BME280;10039;42.632;23.408;2022-10-16T04:40:23;95703.44;;;9.38;71.44
19761;BME280;10039;42.632;23.408;2022-10-16T04:42:50;95747.16;;;9.58;71.25
19761;BME280;10039;42.632;23.408;2022-10-16T04:45:15;95737.31;;;9.34;71.95
19761;BME280;10039;42.632;23.408;2022-10-16T04:47:44;95746.78;;;9.46;71.72
19761;BME280;10039;42.632;23.408;2022-10-16T04:50:10;95750.19;;;9.46;71.99
19761;BME280;10039;42.632;23.408;2022-10-16T04:52:36;95733.88;;;9.37;71.95
19761;BME280;10039;42.632;23.408;2022-10-16T04:55:02;95760.47;;;9.51;71.22
19761;BME280;10039;42.632;23.408;2022-10-16T04:57:29;95738.06;;;9.35;70.72
19761;BME280;10039;42.632;23.408;2022-10-16T04:59:55;95717.16;;;9.33;69.87
19761;BME280;10039;42.632;23.408;2022-10-16T05:02:21;95764.25;;;9.61;69.74
19761;BME280;10039;42.632;23.408;2022-10-16T05:04:46;95763.47;;;9.74;69.23
19761;BME280;10039;42.632;23.408;2022-10-16T05:07:12;95773.72;;;9.79;68.93
19761;BME280;10039;42.632;23.408;2022-10-16T05:09:37;95760.84;;;9.67;68.55
19761;BME280;10039;42.632;23.408;2022-10-16T05:12:03;95774.50;;;9.76;67.95
19761;BME280;10039;42.632;23.408;2022-10-16T05:14:29;95745.94;;;9.73;68.11
19761;BME280;10039;42.632;23.408;2022-10-16T05:16:55;95775.97;;;9.98;67.97
19761;BME280;10039;42.632;23.408;2022-10-16T05:19:21;95789.66;;;10.07;67.69
19761;BME280;10039;42.632;23.408;2022-10-16T05:21:46;95778.25;;;9.96;67.47
19761;BME280;10039;42.632;23.408;2022-10-16T05:24:12;95766.84;;;9.85;68.09
19761;BME280;10039;42.632;23.408;2022-10-16T05:26:38;95767.59;;;9.89;67.82
19761;BME280;10039;42.632;23.408;2022-10-16T05:29:03;95798.06;;;10.05;68.07
19761;BME280;10039;42.632;23.408;2022-10-16T05:31:29;95762.69;;;9.77;68.59
19761;BME280;10039;42.632;23.408;2022-10-16T05:34:01;95788.91;;;9.93;68.71
19761;BME280;10039;42.632;23.408;2022-10-16T05:36:27;95764.22;;;9.75;68.55
19761;BME280;10039;42.632;23.408;2022-10-16T05:38:53;95779.78;;;9.97;68.50
19761;BME280;10039;42.632;23.408;2022-10-16T05:41:19;95775.25;;;9.84;69.16
19761;BME280;10039;42.632;23.408;2022-10-16T05:43:47;95763.81;;;9.83;69.11
19761;BME280;10039;42.632;23.408;2022-10-16T05:46:13;95805.28;;;9.98;69.14
19761;BME280;10039;42.632;23.408;2022-10-16T05:48:39;95796.63;;;9.66;70.27
19761;BME280;10039;42.632;23.408;2022-10-16T05:51:07;95776.06;;;9.63;70.66
19761;BME280;10039;42.632;23.408;2022-10-16T05:53:35;95802.66;;;9.77;70.42
19761;BME280;10039;42.632;23.408;2022-10-16T05:56:02;95790.47;;;9.76;70.59
19761;BME280;10039;42.632;23.408;2022-10-16T05:58:29;95808.00;;;9.84;70.62
19761;BME280;10039;42.632;23.408;2022-10-16T06:01:01;95785.59;;;9.64;71.21
19761;BME280;10039;42.632;23.408;2022-10-16T06:03:27;95805.72;;;9.79;71.69
19761;BME280;10039;42.632;23.408;2022-10-16T06:05:53;95795.09;;;9.65;71.49
19761;BME280;10039;42.632;23.408;2022-10-16T06:08:20;95814.91;;;9.64;72.19
19761;BME280;10039;42.632;23.408;2022-10-16T06:10:47;95806.13;;;9.71;71.34
19761;BME280;10039;42.632;23.408;2022-10-16T06:13:13;95829.28;;;9.95;71.46
19761;BME280;10039;42.632;23.408;2022-10-16T06:15:40;95820.53;;;10.04;71.58
19761;BME280;10039;42.632;23.408;2022-10-16T06:18:09;95834.56;;;10.26;71.02
19761;BME280;10039;42.632;23.408;2022-10-16T06:20:36;95817.06;;;10.11;71.02
19761;BME280;10039;42.632;23.408;2022-10-16T06:23:02;95837.59;;;10.35;70.77
19761;BME280;10039;42.632;23.408;2022-10-16T06:25:29;95828.06;;;10.27;70.75
19761;BME280;10039;42.632;23.408;2022-10-16T06:27:55;95844.38;;;10.43;70.47
19761;BME280;10039;42.632;23.408;2022-10-16T06:30:24;95830.69;;;10.41;70.39
19761;BME280;10039;42.632;23.408;2022-10-16T06:32:50;95828.69;;;10.59;70.12
19761;BME280;10039;42.632;23.408;2022-10-16T06:35:16;95809.66;;;10.57;69.69
19761;BME280;10039;42.632;23.408;2022-10-16T06:37:42;95845.63;;;10.96;69.82
19761;BME280;10039;42.632;23.408;2022-10-16T06:40:08;95846.72;;;11.06;69.42
19761;BME280;10039;42.632;23.408;2022-10-16T06:42:33;95827.44;;;10.81;68.88
19761;BME280;10039;42.632;23.408;2022-10-16T06:44:59;95835.84;;;10.76;68.91
19761;BME280;10039;42.632;23.408;2022-10-16T06:47:24;95854.47;;;10.90;68.77
19761;BME280;10039;42.632;23.408;2022-10-16T06:49:50;95851.38;;;10.91;69.25
19761;BME280;10039;42.632;23.408;2022-10-16T06:52:16;95855.75;;;11.25;68.88
19761;BME280;10039;42.632;23.408;2022-10-16T06:54:41;95845.81;;;11.26;69.02
19761;BME280;10039;42.632;23.408;2022-10-16T06:57:07;95880.50;;;11.33;68.39
19761;BME280;10039;42.632;23.408;2022-10-16T06:59:33;95850.00;;;11.30;68.43
19761;BME280;10039;42.632;23.408;2022-10-16T07:01:58;95867.38;;;11.52;68.08
19761;BME280;10039;42.632;23.408;2022-10-16T07:04:24;95874.16;;;11.67;67.73
19761;BME280;10039;42.632;23.408;2022-10-16T07:06:50;95866.34;;;11.87;67.92
19761;BME280;10039;42.632;23.408;2022-10-16T07:09:17;95849.81;;;11.95;66.95
19761;BME280;10039;42.632;23.408;2022-10-16T07:11:42;95841.53;;;12.20;65.89
19761;BME280;10039;42.632;23.408;2022-10-16T07:14:19;95856.53;;;12.47;65.37
19761;BME280;10039;42.632;23.408;2022-10-16T07:16:45;95876.50;;;12.72;64.85
19761;BME280;10039;42.632;23.408;2022-10-16T07:19:11;95852.13;;;12.63;64.96
19761;BME280;10039;42.632;23.408;2022-10-16T07:21:38;95867.47;;;12.89;64.73
19761;BME280;10039;42.632;23.408;2022-10-16T07:24:06;95847.28;;;13.11;63.52
19761;BME280;10039;42.632;23.408;2022-10-16T07:26:35;95877.94;;;13.59;63.36
19761;BME280;10039;42.632;23.408;2022-10-16T07:29:01;95836.09;;;13.43;62.45
19761;BME280;10039;42.632;23.408;2022-10-16T07:31:27;95884.50;;;13.81;62.13
19761;BME280;10039;42.632;23.408;2022-10-16T07:33:53;95877.66;;;14.00;61.69
19761;BME280;10039;42.632;23.408;2022-10-16T07:36:20;95857.06;;;13.93;61.43
19761;BME280;10039;42.632;23.408;2022-10-16T07:38:46;95844.25;;;13.81;60.61
19761;BME280;10039;42.632;23.408;2022-10-16T07:41:14;95844.81;;;13.92;60.88
19761;BME280;10039;42.632;23.408;2022-10-16T07:43:40;95870.19;;;14.11;60.89
19761;BME280;10039;42.632;23.408;2022-10-16T07:46:06;95885.88;;;14.35;61.39
19761;BME280;10039;42.632;23.408;2022-10-16T07:48:33;95872.88;;;14.34;61.07
19761;BME280;10039;42.632;23.408;2022-10-16T07:51:03;95885.53;;;14.53;59.99
19761;BME280;10039;42.632;23.408;2022-10-16T07:53:30;95871.69;;;14.54;60.01
19761;BME280;10039;42.632;23.408;2022-10-16T07:56:04;95859.75;;;14.36;60.49
19761;BME280;10039;42.632;23.408;2022-10-16T07:58:31;95865.63;;;14.50;60.19
19761;BME280;10039;42.632;23.408;2022-10-16T08:00:57;95885.94;;;14.51;59.92
19761;BME280;10039;42.632;23.408;2022-10-16T08:03:24;95856.91;;;14.46;60.79
19761;BME280;10039;42.632;23.408;2022-10-16T08:05:50;95885.19;;;14.70;60.16
19761;BME280;10039;42.632;23.408;2022-10-16T08:08:17;95872.09;;;14.72;59.31
19761;BME280;10039;42.632;23.408;2022-10-16T08:10:43;95859.91;;;14.67;59.78
19761;BME280;10039;42.632;23.408;2022-10-16T08:13:09;95845.22;;;14.72;58.97
19761;BME280;10039;42.632;23.408;2022-10-16T08:15:35;95839.03;;;14.75;58.55
19761;BME280;10039;42.632;23.408;2022-10-16T08:18:03;95863.69;;;14.70;58.44
19761;BME280;10039;42.632;23.408;2022-10-16T08:20:30;95860.66;;;14.68;58.75
19761;BME280;10039;42.632;23.408;2022-10-16T08:22:56;95833.13;;;14.45;58.34
19761;BME280;10039;42.632;23.408;2022-10-16T08:25:24;95882.41;;;14.93;59.54
19761;BME280;10039;42.632;23.408;2022-10-16T08:27:50;95831.31;;;14.77;59.24
19761;BME280;10039;42.632;23.408;2022-10-16T08:30:18;95875.16;;;15.09;58.76
19761;BME280;10039;42.632;23.408;2022-10-16T08:32:44;95857.44;;;15.12;58.61
19761;BME280;10039;42.632;23.408;2022-10-16T08:35:11;95857.72;;;14.98;56.33
19761;BME280;10039;42.632;23.408;2022-10-16T08:37:37;95864.16;;;14.84;57.08
19761;BME280;10039;42.632;23.408;2022-10-16T08:40:05;95842.41;;;14.79;58.82
19761;BME280;10039;42.632;23.408;2022-10-16T08:42:59;95871.19;;;15.14;57.65
19761;BME280;10039;42.632;23.408;2022-10-16T08:48:46;95872.13;;;15.07;57.91
19761;BME280;10039;42.632;23.408;2022-10-16T08:51:21;95843.59;;;14.94;58.08
19761;BME280;10039;42.632;23.408;2022-10-16T08:54:04;95862.13;;;15.08;58.05
19761;BME280;10039;42.632;23.408;2022-10-16T08:56:31;95863.44;;;15.00;56.44
19761;BME280;10039;42.632;23.408;2022-10-16T08:58:58;95868.47;;;14.98;56.74
19761;BME280;10039;42.632;23.408;2022-10-16T09:01:41;95872.06;;;15.11;53.65
19761;BME280;10039;42.632;23.408;2022-10-16T09:09:24;95871.03;;;15.56;52.94
19761;BME280;10039;42.632;23.408;2022-10-16T09:12:15;95871.78;;;15.57;54.02
19761;BME280;10039;42.632;23.408;2022-10-16T09:17:54;95868.41;;;15.53;52.57
19761;BME280;10039;42.632;23.408;2022-10-16T09:23:17;95843.38;;;15.40;51.35
19761;BME280;10039;42.632;23.408;2022-10-16T09:25:47;95839.50;;;15.41;51.46
19761;BME280;10039;42.632;23.408;2022-10-16T09:28:13;95854.06;;;15.59;53.53
19761;BME280;10039;42.632;23.408;2022-10-16T09:30:40;95874.63;;;15.81;53.34
19761;BME280;10039;42.632;23.408;2022-10-16T09:33:07;95842.03;;;15.64;51.25
19761;BME280;10039;42.632;23.408;2022-10-16T09:35:49;95870.75;;;15.82;52.43
19761;BME280;10039;42.632;23.408;2022-10-16T09:38:34;95870.25;;;15.87;50.02
19761;BME280;10039;42.632;23.408;2022-10-16T09:41:16;95867.56;;;15.87;50.46
19761;BME280;10039;42.632;23.408;2022-10-16T09:46:33;95861.72;;;15.76;50.67
19761;BME280;10039;42.632;23.408;2022-10-16T09:49:21;95832.69;;;15.68;50.27
19761;BME280;10039;42.632;23.408;2022-10-16T09:51:47;95851.53;;;15.84;52.19
19761;BME280;10039;42.632;23.408;2022-10-16T09:54:18;95825.88;;;15.64;50.97
19761;BME280;10039;42.632;23.408;2022-10-16T09:56:44;95851.91;;;15.82;50.12
19761;BME280;10039;42.632;23.408;2022-10-16T09:59:16;95804.34;;;15.48;50.41
19761;BME280;10039;42.632;23.408;2022-10-16T10:01:48;95846.75;;;15.75;50.92
19761;BME280;10039;42.632;23.408;2022-10-16T10:04:14;95830.09;;;15.65;52.04
19761;BME280;10039;42.632;23.408;2022-10-16T10:06:51;95834.53;;;15.87;51.98
19761;BME280;10039;42.632;23.408;2022-10-16T10:11:57;95808.19;;;15.78;49.89
19761;BME280;10039;42.632;23.408;2022-10-16T10:17:00;95788.38;;;15.57;50.92
19761;BME280;10039;42.632;23.408;2022-10-16T10:19:27;95821.81;;;15.87;51.17
19761;BME280;10039;42.632;23.408;2022-10-16T10:21:53;95830.03;;;15.96;50.04
19761;BME280;10039;42.632;23.408;2022-10-16T10:24:20;95811.31;;;15.77;49.37
19761;BME280;10039;42.632;23.408;2022-10-16T10:27:02;95831.22;;;15.95;51.54
19761;BME280;10039;42.632;23.408;2022-10-16T10:29:53;95823.81;;;15.99;49.38
19761;BME280;10039;42.632;23.408;2022-10-16T10:32:37;95805.09;;;15.80;48.71
19761;BME280;10039;42.632;23.408;2022-10-16T10:35:14;95792.56;;;15.73;49.07
19761;BME280;10039;42.632;23.408;2022-10-16T10:41:01;95822.19;;;16.02;47.25
19761;BME280;10039;42.632;23.408;2022-10-16T10:46:04;95797.91;;;15.89;47.33
19761;BME280;10039;42.632;23.408;2022-10-16T10:51:25;95811.81;;;16.16;47.56
19761;BME280;10039;42.632;23.408;2022-10-16T10:56:59;95805.56;;;16.35;49.01
19761;BME280;10039;42.632;23.408;2022-10-16T11:02:38;95799.94;;;16.42;44.66
19761;BME280;10039;42.632;23.408;2022-10-16T11:07:49;95791.31;;;16.35;43.39
19761;BME280;10039;42.632;23.408;2022-10-16T11:10:22;95788.44;;;16.42;43.90
19761;BME280;10039;42.632;23.408;2022-10-16T11:12:52;95782.38;;;16.38;43.37
19761;BME280;10039;42.632;23.408;2022-10-16T11:15:33;95767.50;;;16.33;42.25
19761;BME280;10039;42.632;23.408;2022-10-16T11:18:30;95762.47;;;16.19;42.71
19761;BME280;10039;42.632;23.408;2022-10-16T11:21:02;95743.63;;;16.19;43.47
19761;BME280;10039;42.632;23.408;2022-10-16T11:23:41;95787.47;;;16.48;43.23
19761;BME280;10039;42.632;23.408;2022-10-16T11:26:19;95773.47;;;16.53;43.18
19761;BME280;10039;42.632;23.408;2022-10-16T11:28:48;95740.56;;;16.33;41.90
19761;BME280;10039;42.632;23.408;2022-10-16T11:31:37;95730.44;;;16.37;43.04
19761;BME280;10039;42.632;23.408;2022-10-16T11:34:12;95772.63;;;16.69;43.62
19761;BME280;10039;42.632;23.408;2022-10-16T11:39:30;95778.22;;;16.74;42.29
19761;BME280;10039;42.632;23.408;2022-10-16T11:42:11;95777.03;;;16.75;42.03
19761;BME280;10039;42.632;23.408;2022-10-16T11:44:53;95753.53;;;16.63;42.53
19761;BME280;10039;42.632;23.408;2022-10-16T11:47:36;95779.88;;;16.84;43.04
19761;BME280;10039;42.632;23.408;2022-10-16T11:52:53;95771.91;;;16.93;40.24
19761;BME280;10039;42.632;23.408;2022-10-16T11:55:25;95754.84;;;16.71;41.06
19761;BME280;10039;42.632;23.408;2022-10-16T12:04:10;95741.66;;;16.73;41.76
19761;BME280;10039;42.632;23.408;2022-10-16T12:09:25;95772.09;;;17.11;42.38
19761;BME280;10039;42.632;23.408;2022-10-16T12:11:51;95744.41;;;16.86;42.58
19761;BME280;10039;42.632;23.408;2022-10-16T12:14:34;95766.81;;;17.07;42.19
19761;BME280;10039;42.632;23.408;2022-10-16T12:19:58;95741.25;;;16.87;42.30
19761;BME280;10039;42.632;23.408;2022-10-16T12:22:27;95753.53;;;17.00;42.58
19761;BME280;10039;42.632;23.408;2022-10-16T12:24:56;95736.50;;;16.91;40.29
19761;BME280;10039;42.632;23.408;2022-10-16T12:27:32;95723.78;;;16.79;40.38
19761;BME280;10039;42.632;23.408;2022-10-16T12:30:05;95771.00;;;17.21;41.60
19761;BME280;10039;42.632;23.408;2022-10-16T12:32:34;95774.78;;;17.23;42.16
19761;BME280;10039;42.632;23.408;2022-10-16T12:35:01;95760.97;;;17.21;41.39
19761;BME280;10039;42.632;23.408;2022-10-16T12:37:34;95753.00;;;17.18;42.02
19761;BME280;10039;42.632;23.408;2022-10-16T12:40:30;95762.19;;;17.33;41.99
19761;BME280;10039;42.632;23.408;2022-10-16T12:42:56;95746.00;;;17.20;42.21
19761;BME280;10039;42.632;23.408;2022-10-16T12:45:40;95775.69;;;17.33;42.23
19761;BME280;10039;42.632;23.408;2022-10-16T12:48:20;95746.84;;;17.17;40.99
19761;BME280;10039;42.632;23.408;2022-10-16T12:50:52;95745.53;;;17.22;41.01
19761;BME280;10039;42.632;23.408;2022-10-16T12:53:23;95751.91;;;17.28;41.68
19761;BME280;10039;42.632;23.408;2022-10-16T13:01:53;95780.28;;;17.45;41.01
19761;BME280;10039;42.632;23.408;2022-10-16T13:07:28;95785.34;;;17.55;41.84
19761;BME280;10039;42.632;23.408;2022-10-16T13:10:14;95791.50;;;17.56;38.58
19761;BME280;10039;42.632;23.408;2022-10-16T13:17:52;95782.63;;;17.68;41.47
19761;BME280;10039;42.632;23.408;2022-10-16T13:23:21;95776.81;;;17.57;41.78
19761;BME280;10039;42.632;23.408;2022-10-16T13:26:29;95783.50;;;17.65;40.26
19761;BME280;10039;42.632;23.408;2022-10-16T13:28:59;95745.22;;;17.32;40.72
19761;BME280;10039;42.632;23.408;2022-10-16T13:31:26;95757.31;;;17.40;41.11
19761;BME280;10039;42.632;23.408;2022-10-16T13:33:55;95789.13;;;17.58;40.35
19761;BME280;10039;42.632;23.408;2022-10-16T13:36:45;95774.66;;;17.52;39.82
19761;BME280;10039;42.632;23.408;2022-10-16T13:39:13;95762.59;;;17.44;39.41
19761;BME280;10039;42.632;23.408;2022-10-16T13:41:40;95760.72;;;17.53;39.64
19761;BME280;10039;42.632;23.408;2022-10-16T13:44:13;95762.56;;;17.56;40.72
19761;BME280;10039;42.632;23.408;2022-10-16T13:46:40;95763.41;;;17.66;41.15
19761;BME280;10039;42.632;23.408;2022-10-16T13:49:15;95788.53;;;17.75;41.17
19761;BME280;10039;42.632;23.408;2022-10-16T13:51:41;95772.94;;;17.58;41.11
19761;BME280;10039;42.632;23.408;2022-10-16T13:54:10;95794.91;;;17.69;41.27
19761;BME280;10039;42.632;23.408;2022-10-16T13:56:38;95788.97;;;17.74;41.11
19761;BME280;10039;42.632;23.408;2022-10-16T14:02:08;95799.81;;;17.61;41.52
19761;BME280;10039;42.632;23.408;2022-10-16T14:04:41;95791.94;;;17.54;41.44
19761;BME280;10039;42.632;23.408;2022-10-16T14:07:14;95796.91;;;17.56;41.30
19761;BME280;10039;42.632;23.408;2022-10-16T14:09:41;95800.78;;;17.67;41.47
19761;BME280;10039;42.632;23.408;2022-10-16T14:12:10;95807.69;;;17.68;41.18
19761;BME280;10039;42.632;23.408;2022-10-16T14:14:45;95795.88;;;17.75;41.33
19761;BME280;10039;42.632;23.408;2022-10-16T14:17:17;95806.34;;;17.73;41.27
19761;BME280;10039;42.632;23.408;2022-10-16T14:19:47;95816.41;;;17.72;41.06
19761;BME280;10039;42.632;23.408;2022-10-16T14:22:33;95814.13;;;17.71;41.29
19761;BME280;10039;42.632;23.408;2022-10-16T14:24:59;95793.25;;;17.50;40.94
19761;BME280;10039;42.632;23.408;2022-10-16T14:27:36;95814.13;;;17.71;40.68
19761;BME280;10039;42.632;23.408;2022-10-16T14:30:20;95803.63;;;17.51;40.59
19761;BME280;10039;42.632;23.408;2022-10-16T14:32:57;95805.97;;;17.62;40.45
19761;BME280;10039;42.632;23.408;2022-10-16T14:35:32;95817.41;;;17.66;40.37
19761;BME280;10039;42.632;23.408;2022-10-16T14:38:02;95809.44;;;17.50;40.48
19761;BME280;10039;42.632;23.408;2022-10-16T14:40:34;95801.00;;;17.48;40.49
19761;BME280;10039;42.632;23.408;2022-10-16T14:43:01;95786.56;;;17.17;40.08